createdAt,value
2018-11-21T09:24:55.841Z,17.00
2018-11-21T09:29:51.902Z,16.63
2018-11-21T09:34:48.154Z,15.13
2018-11-21T09:39:44.402Z,14.47
2018-11-21T09:44:42.744Z,15.53
2018-11-21T09:49:39.082Z,13.67
2018-11-21T09:54:35.234Z,15.17
2018-11-21T09:59:31.310Z,16.57
2018-11-21T10:04:27.390Z,15.27
2018-11-21T10:09:26.007Z,18.63
2018-11-21T10:14:22.169Z,15.20
2018-11-21T10:19:18.270Z,12.97
2018-11-21T10:24:15.407Z,14.50
2018-11-21T10:29:11.550Z,10.00
2018-11-21T10:34:07.673Z,11.90
2018-11-21T10:39:04.198Z,12.87
2018-11-21T10:44:00.282Z,12.20
2018-11-21T10:48:56.373Z,11.70
2018-11-21T10:53:52.509Z,14.67
2018-11-21T10:58:48.617Z,13.10
2018-11-21T11:03:56.398Z,15.60
2018-11-21T11:09:09.652Z,14.10
2018-11-21T11:14:30.274Z,13.73
2018-11-21T11:19:50.890Z,10.10
2018-11-21T11:25:08.639Z,10.20
2018-11-21T11:30:29.461Z,12.73
2018-11-21T11:35:39.114Z,13.00
2018-11-21T11:41:02.800Z,14.77
2018-11-21T11:46:37.800Z,12.50
2018-11-21T11:52:07.984Z,12.27
2018-11-21T11:57:28.614Z,12.77
2018-11-21T12:02:58.709Z,11.73
2018-11-21T12:08:11.838Z,14.67
2018-11-21T12:13:32.244Z,13.40
2018-11-21T12:18:45.758Z,13.50
2018-11-21T12:24:09.831Z,12.27
2018-11-21T12:29:25.137Z,14.30
2018-11-21T12:34:55.168Z,12.33
2018-11-21T12:40:15.830Z,12.70
2018-11-21T12:45:48.621Z,13.93
2018-11-21T12:51:06.126Z,34.33
2018-11-21T12:56:32.781Z,19.13
2018-11-21T13:01:43.825Z,20.60
2018-11-21T13:07:02.210Z,17.63
2018-11-21T13:12:22.833Z,13.70
2018-11-21T13:17:36.505Z,17.07
2018-11-21T13:22:58.355Z,13.93
2018-11-21T13:28:14.328Z,13.53
2018-11-21T13:33:39.829Z,16.87
2018-11-21T13:38:51.242Z,17.13
2018-11-21T13:44:18.155Z,17.23
2018-11-21T13:49:41.837Z,17.40
2018-11-21T13:55:02.654Z,17.03
2018-11-21T13:59:59.186Z,17.90
2018-11-21T14:04:55.806Z,16.23
2018-11-21T14:09:52.166Z,20.07
2018-11-21T14:14:49.223Z,18.87
2018-11-21T14:19:45.517Z,17.63
2018-11-21T14:24:41.786Z,18.33
2018-11-21T14:29:38.543Z,20.90
2018-11-21T14:34:34.836Z,33.73
2018-11-21T14:39:31.130Z,37.60
2018-11-21T14:44:27.380Z,41.10
2018-11-21T14:49:23.613Z,38.27
2018-11-21T14:54:19.816Z,23.77
2018-11-21T14:59:16.039Z,23.53
2018-11-21T15:04:12.297Z,26.37
2018-11-21T15:09:12.432Z,51.70
2018-11-21T15:14:08.733Z,34.33
2018-11-21T15:19:05.164Z,35.57
2018-11-21T15:24:01.384Z,35.70
2018-11-21T15:28:57.937Z,34.83
2018-11-21T15:33:54.210Z,29.97
2018-11-21T15:38:50.476Z,32.23
2018-11-21T15:43:46.726Z,28.63
2018-11-21T15:48:42.958Z,25.77
2018-11-21T15:53:39.501Z,30.40
2018-11-21T15:58:35.874Z,26.73
2018-11-21T16:03:32.101Z,28.80
2018-11-21T16:08:28.339Z,31.00
2018-11-21T16:13:24.671Z,58.23
2018-11-21T16:18:22.173Z,30.87
2018-11-21T16:23:18.429Z,22.20
2018-11-21T16:28:14.791Z,27.13
2018-11-21T16:33:11.263Z,49.13
2018-11-21T16:38:08.121Z,42.57
2018-11-21T16:43:05.358Z,33.00
2018-11-21T16:48:01.640Z,30.53
2018-11-21T16:52:57.942Z,26.73
2018-11-21T16:57:55.151Z,26.63
2018-11-21T17:02:51.442Z,26.33
2018-11-21T17:07:47.766Z,25.17
2018-11-21T17:12:44.586Z,25.77
2018-11-21T17:17:41.146Z,26.63
2018-11-21T17:22:37.398Z,27.67
2018-11-21T17:27:33.625Z,26.40
2018-11-21T17:32:30.685Z,27.33
2018-11-21T17:37:29.409Z,36.27
2018-11-21T17:42:26.146Z,41.27
2018-11-21T17:47:23.053Z,41.07
2018-11-21T17:52:22.207Z,42.67
2018-11-21T17:57:18.573Z,38.00
2018-11-21T18:02:15.693Z,28.07
2018-11-21T18:07:11.967Z,53.17
2018-11-21T18:12:08.229Z,37.10
2018-11-21T18:17:04.460Z,41.07
2018-11-21T18:22:00.878Z,32.50
2018-11-21T18:26:57.158Z,28.43
2018-11-21T18:31:53.494Z,26.17
2018-11-21T18:36:49.873Z,32.33
2018-11-21T18:41:46.117Z,36.43
2018-11-21T18:46:42.363Z,28.43
2018-11-21T18:51:38.585Z,22.97
